sensor_id;sensor_type;location;lat;lon;timestamp;temperature;humidity
7461;DHT22;6757;52.258;12.840;2023-07-29T00:01:38;16.60;99.90
7461;DHT22;6757;52.258;12.840;2023-07-29T00:04:06;16.50;99.90
7461;DHT22;6757;52.258;12.840;2023-07-29T00:06:34;16.50;99.90
7461;DHT22;6757;52.258;12.840;2023-07-29T00:09:03;16.50;99.90
7461;DHT22;6757;52.258;12.840;2023-07-29T00:11:30;16.50;99.90
7461;DHT22;6757;52.258;12.840;2023-07-29T00:13:59;16.40;99.90
7461;DHT22;6757;52.258;12.840;2023-07-29T00:16:26;16.40;99.90
7461;DHT22;6757;52.258;12.840;2023-07-29T00:18:53;16.30;99.90
7461;DHT22;6757;52.258;12.840;2023-07-29T00:21:20;16.40;99.90
7461;DHT22;6757;52.258;12.840;2023-07-29T00:23:47;16.30;99.90
7461;DHT22;6757;52.258;12.840;2023-07-29T00:26:15;16.20;99.90
7461;DHT22;6757;52.258;12.840;2023-07-29T00:28:43;16.20;99.90
7461;DHT22;6757;52.258;12.840;2023-07-29T00:31:09;16.20;99.90
7461;DHT22;6757;52.258;12.840;2023-07-29T00:33:37;16.10;99.90
7461;DHT22;6757;52.258;12.840;2023-07-29T00:36:04;16.10;99.90
7461;DHT22;6757;52.258;12.840;2023-07-29T00:38:31;16.10;99.90
7461;DHT22;6757;52.258;12.840;2023-07-29T00:40:58;16.10;99.90
7461;DHT22;6757;52.258;12.840;2023-07-29T00:43:28;16.10;99.90
7461;DHT22;6757;52.258;12.840;2023-07-29T00:45:55;16.00;99.90
7461;DHT22;6757;52.258;12.840;2023-07-29T00:48:23;16.00;99.90
7461;DHT22;6757;52.258;12.840;2023-07-29T00:50:51;15.90;99.90
7461;DHT22;6757;52.258;12.840;2023-07-29T00:53:18;15.90;99.90
7461;DHT22;6757;52.258;12.840;2023-07-29T00:55:45;15.90;99.90
7461;DHT22;6757;52.258;12.840;2023-07-29T00:58:12;15.80;99.90
7461;DHT22;6757;52.258;12.840;2023-07-29T01:00:40;15.80;99.90
7461;DHT22;6757;52.258;12.840;2023-07-29T01:03:08;15.80;99.90
7461;DHT22;6757;52.258;12.840;2023-07-29T01:05:40;15.70;99.90
7461;DHT22;6757;52.258;12.840;2023-07-29T01:08:20;15.70;99.90
7461;DHT22;6757;52.258;12.840;2023-07-29T01:10:55;15.70;99.90
7461;DHT22;6757;52.258;12.840;2023-07-29T01:13:33;15.60;99.90
7461;DHT22;6757;52.258;12.840;2023-07-29T01:16:09;15.50;99.90
7461;DHT22;6757;52.258;12.840;2023-07-29T01:18:41;15.60;99.90
7461;DHT22;6757;52.258;12.840;2023-07-29T01:21:09;15.50;99.90
7461;DHT22;6757;52.258;12.840;2023-07-29T01:23:38;15.50;99.90
7461;DHT22;6757;52.258;12.840;2023-07-29T01:26:06;15.50;99.90
7461;DHT22;6757;52.258;12.840;2023-07-29T01:28:33;15.50;99.90
7461;DHT22;6757;52.258;12.840;2023-07-29T01:31:03;15.50;99.90
7461;DHT22;6757;52.258;12.840;2023-07-29T01:33:39;15.40;99.90
7461;DHT22;6757;52.258;12.840;2023-07-29T01:36:11;15.40;99.90
7461;DHT22;6757;52.258;12.840;2023-07-29T01:38:43;15.40;99.90
7461;DHT22;6757;52.258;12.840;2023-07-29T01:41:11;15.40;99.90
7461;DHT22;6757;52.258;12.840;2023-07-29T01:43:39;15.40;99.90
7461;DHT22;6757;52.258;12.840;2023-07-29T01:46:09;15.40;99.90
7461;DHT22;6757;52.258;12.840;2023-07-29T01:48:37;15.30;99.90
7461;DHT22;6757;52.258;12.840;2023-07-29T01:51:04;15.30;99.90
7461;DHT22;6757;52.258;12.840;2023-07-29T01:53:31;15.30;99.90
7461;DHT22;6757;52.258;12.840;2023-07-29T01:56:00;15.30;99.90
7461;DHT22;6757;52.258;12.840;2023-07-29T01:58:26;15.30;99.90
7461;DHT22;6757;52.258;12.840;2023-07-29T02:00:53;15.30;99.90
7461;DHT22;6757;52.258;12.840;2023-07-29T02:03:20;15.30;99.90
7461;DHT22;6757;52.258;12.840;2023-07-29T02:05:47;15.30;99.90
7461;DHT22;6757;52.258;12.840;2023-07-29T02:08:14;15.30;99.90
7461;DHT22;6757;52.258;12.840;2023-07-29T02:10:41;15.30;99.90
7461;DHT22;6757;52.258;12.840;2023-07-29T02:13:12;15.30;99.90
7461;DHT22;6757;52.258;12.840;2023-07-29T02:15:39;15.30;99.90
7461;DHT22;6757;52.258;12.840;2023-07-29T02:18:06;15.30;99.90
7461;DHT22;6757;52.258;12.840;2023-07-29T02:20:33;15.40;99.90
7461;DHT22;6757;52.258;12.840;2023-07-29T02:23:00;15.40;99.90
7461;DHT22;6757;52.258;12.840;2023-07-29T02:25:27;15.40;99.90
7461;DHT22;6757;52.258;12.840;2023-07-29T02:27:53;15.40;99.90
7461;DHT22;6757;52.258;12.840;2023-07-29T02:30:22;15.40;99.90
7461;DHT22;6757;52.258;12.840;2023-07-29T02:32:49;15.40;99.90
7461;DHT22;6757;52.258;12.840;2023-07-29T02:35:16;15.40;99.90
7461;DHT22;6757;52.258;12.840;2023-07-29T02:37:43;15.40;99.90
7461;DHT22;6757;52.258;12.840;2023-07-29T02:40:11;15.40;99.90
7461;DHT22;6757;52.258;12.840;2023-07-29T02:42:38;15.40;99.90
7461;DHT22;6757;52.258;12.840;2023-07-29T02:45:06;15.40;99.90
7461;DHT22;6757;52.258;12.840;2023-07-29T02:47:36;15.40;99.90
7461;DHT22;6757;52.258;12.840;2023-07-29T02:50:04;15.40;99.90
7461;DHT22;6757;52.258;12.840;2023-07-29T02:52:31;15.40;99.90
7461;DHT22;6757;52.258;12.840;2023-07-29T02:54:58;15.50;99.90
7461;DHT22;6757;52.258;12.840;2023-07-29T02:57:25;15.50;99.90
7461;DHT22;6757;52.258;12.840;2023-07-29T02:59:52;15.50;99.90
7461;DHT22;6757;52.258;12.840;2023-07-29T03:02:19;15.50;99.90
7461;DHT22;6757;52.258;12.840;2023-07-29T03:04:49;15.60;99.90
7461;DHT22;6757;52.258;12.840;2023-07-29T03:07:16;15.60;99.90
7461;DHT22;6757;52.258;12.840;2023-07-29T03:09:42;15.60;99.90
7461;DHT22;6757;52.258;12.840;2023-07-29T03:12:10;15.60;99.90
7461;DHT22;6757;52.258;12.840;2023-07-29T03:14:37;15.60;99.90
7461;DHT22;6757;52.258;12.840;2023-07-29T03:17:05;15.60;99.90
7461;DHT22;6757;52.258;12.840;2023-07-29T03:19:32;15.60;99.90
7461;DHT22;6757;52.258;12.840;2023-07-29T03:22:00;15.60;99.90
7461;DHT22;6757;52.258;12.840;2023-07-29T03:24:27;15.60;99.90
7461;DHT22;6757;52.258;12.840;2023-07-29T03:26:54;15.60;99.90
7461;DHT22;6757;52.258;12.840;2023-07-29T03:29:21;15.50;99.90
7461;DHT22;6757;52.258;12.840;2023-07-29T03:31:48;15.50;99.90
7461;DHT22;6757;52.258;12.840;2023-07-29T03:34:15;15.50;99.90
7461;DHT22;6757;52.258;12.840;2023-07-29T03:36:42;15.50;99.90
7461;DHT22;6757;52.258;12.840;2023-07-29T03:39:12;15.50;99.90
7461;DHT22;6757;52.258;12.840;2023-07-29T03:41:39;15.40;99.90
7461;DHT22;6757;52.258;12.840;2023-07-29T03:44:06;15.40;99.90
7461;DHT22;6757;52.258;12.840;2023-07-29T03:46:33;15.40;99.90
7461;DHT22;6757;52.258;12.840;2023-07-29T03:49:00;15.40;99.90
7461;DHT22;6757;52.258;12.840;2023-07-29T03:51:28;15.40;99.90
7461;DHT22;6757;52.258;12.840;2023-07-29T03:53:55;15.30;99.90
7461;DHT22;6757;52.258;12.840;2023-07-29T03:56:23;15.30;99.90
7461;DHT22;6757;52.258;12.840;2023-07-29T03:58:51;15.30;99.90
7461;DHT22;6757;52.258;12.840;2023-07-29T04:01:18;15.30;99.90
7461;DHT22;6757;52.258;12.840;2023-07-29T04:03:46;15.30;99.90
7461;DHT22;6757;52.258;12.840;2023-07-29T04:06:12;15.40;99.90
7461;DHT22;6757;52.258;12.840;2023-07-29T04:08:40;15.40;99.90
7461;DHT22;6757;52.258;12.840;2023-07-29T04:11:07;15.40;99.90
7461;DHT22;6757;52.258;12.840;2023-07-29T04:13:36;15.40;99.90
7461;DHT22;6757;52.258;12.840;2023-07-29T04:16:04;15.40;99.90
7461;DHT22;6757;52.258;12.840;2023-07-29T04:18:31;15.50;99.90
7461;DHT22;6757;52.258;12.840;2023-07-29T04:20:58;15.50;99.90
7461;DHT22;6757;52.258;12.840;2023-07-29T04:23:25;15.50;99.90
7461;DHT22;6757;52.258;12.840;2023-07-29T04:25:52;15.60;99.90
7461;DHT22;6757;52.258;12.840;2023-07-29T04:28:19;15.60;99.90
7461;DHT22;6757;52.258;12.840;2023-07-29T04:30:47;15.70;99.90
7461;DHT22;6757;52.258;12.840;2023-07-29T04:33:14;15.70;99.90
7461;DHT22;6757;52.258;12.840;2023-07-29T04:35:41;15.80;99.90
7461;DHT22;6757;52.258;12.840;2023-07-29T04:38:08;15.80;99.90
7461;DHT22;6757;52.258;12.840;2023-07-29T04:40:35;15.90;99.90
7461;DHT22;6757;52.258;12.840;2023-07-29T04:43:02;15.90;99.90
7461;DHT22;6757;52.258;12.840;2023-07-29T04:45:29;16.00;99.90
7461;DHT22;6757;52.258;12.840;2023-07-29T04:47:58;16.00;99.90
7461;DHT22;6757;52.258;12.840;2023-07-29T04:50:25;16.10;99.90
7461;DHT22;6757;52.258;12.840;2023-07-29T04:52:52;16.10;99.90
7461;DHT22;6757;52.258;12.840;2023-07-29T04:55:19;16.10;99.90
7461;DHT22;6757;52.258;12.840;2023-07-29T04:57:46;16.10;99.90
7461;DHT22;6757;52.258;12.840;2023-07-29T05:00:13;16.20;99.90
7461;DHT22;6757;52.258;12.840;2023-07-29T05:02:40;16.20;99.90
7461;DHT22;6757;52.258;12.840;2023-07-29T05:05:09;16.30;99.90
7461;DHT22;6757;52.258;12.840;2023-07-29T05:07:36;16.30;99.90
7461;DHT22;6757;52.258;12.840;2023-07-29T05:10:03;16.40;99.90
7461;DHT22;6757;52.258;12.840;2023-07-29T05:12:30;16.40;99.90
7461;DHT22;6757;52.258;12.840;2023-07-29T05:14:58;16.50;99.90
7461;DHT22;6757;52.258;12.840;2023-07-29T05:17:25;16.60;99.90
7461;DHT22;6757;52.258;12.840;2023-07-29T05:19:52;16.60;99.90
7461;DHT22;6757;52.258;12.840;2023-07-29T05:22:20;16.70;99.90
7461;DHT22;6757;52.258;12.840;2023-07-29T05:24:47;16.80;99.90
7461;DHT22;6757;52.258;12.840;2023-07-29T05:27:14;16.80;99.90
7461;DHT22;6757;52.258;12.840;2023-07-29T05:29:41;16.90;99.90
7461;DHT22;6757;52.258;12.840;2023-07-29T05:32:08;17.00;99.90
7461;DHT22;6757;52.258;12.840;2023-07-29T05:34:35;17.10;99.90
7461;DHT22;6757;52.258;12.840;2023-07-29T05:37:02;17.20;99.90
7461;DHT22;6757;52.258;12.840;2023-07-29T05:39:31;17.30;99.90
7461;DHT22;6757;52.258;12.840;2023-07-29T05:41:59;17.40;99.90
7461;DHT22;6757;52.258;12.840;2023-07-29T05:44:28;17.60;99.90
7461;DHT22;6757;52.258;12.840;2023-07-29T05:46:55;17.70;99.90
7461;DHT22;6757;52.258;12.840;2023-07-29T05:49:22;17.80;99.90
7461;DHT22;6757;52.258;12.840;2023-07-29T05:51:49;17.90;99.90
7461;DHT22;6757;52.258;12.840;2023-07-29T05:54:18;17.90;99.90
7461;DHT22;6757;52.258;12.840;2023-07-29T05:56:47;18.00;99.90
7461;DHT22;6757;52.258;12.840;2023-07-29T05:59:14;18.10;99.90
7461;DHT22;6757;52.258;12.840;2023-07-29T06:01:41;18.20;99.90
7461;DHT22;6757;52.258;12.840;2023-07-29T06:04:07;18.40;99.90
7461;DHT22;6757;52.258;12.840;2023-07-29T06:06:34;18.40;99.90
7461;DHT22;6757;52.258;12.840;2023-07-29T06:09:01;18.50;99.90
7461;DHT22;6757;52.258;12.840;2023-07-29T06:11:28;18.60;99.90
7461;DHT22;6757;52.258;12.840;2023-07-29T06:13:57;18.70;99.90
7461;DHT22;6757;52.258;12.840;2023-07-29T06:16:23;18.80;99.90
7461;DHT22;6757;52.258;12.840;2023-07-29T06:18:50;18.90;99.90
7461;DHT22;6757;52.258;12.840;2023-07-29T06:21:18;19.10;99.90
7461;DHT22;6757;52.258;12.840;2023-07-29T06:23:45;19.20;99.90
7461;DHT22;6757;52.258;12.840;2023-07-29T06:26:12;19.30;99.90
7461;DHT22;6757;52.258;12.840;2023-07-29T06:28:39;19.40;99.90
7461;DHT22;6757;52.258;12.840;2023-07-29T06:31:07;19.50;99.90
7461;DHT22;6757;52.258;12.840;2023-07-29T06:33:34;19.60;99.90
7461;DHT22;6757;52.258;12.840;2023-07-29T06:36:01;19.70;99.90
7461;DHT22;6757;52.258;12.840;2023-07-29T06:38:28;19.80;99.90
7461;DHT22;6757;52.258;12.840;2023-07-29T06:40:55;19.90;99.90
7461;DHT22;6757;52.258;12.840;2023-07-29T06:43:22;20.00;99.90
7461;DHT22;6757;52.258;12.840;2023-07-29T06:45:49;20.00;99.90
7461;DHT22;6757;52.258;12.840;2023-07-29T06:48:18;20.00;99.90
7461;DHT22;6757;52.258;12.840;2023-07-29T06:50:45;20.20;99.90
7461;DHT22;6757;52.258;12.840;2023-07-29T06:53:12;20.20;99.90
7461;DHT22;6757;52.258;12.840;2023-07-29T06:55:39;20.30;99.90
7461;DHT22;6757;52.258;12.840;2023-07-29T06:58:06;20.30;99.90
7461;DHT22;6757;52.258;12.840;2023-07-29T07:00:33;20.40;99.90
7461;DHT22;6757;52.258;12.840;2023-07-29T07:03:01;20.50;99.90
7461;DHT22;6757;52.258;12.840;2023-07-29T07:05:30;20.60;99.90
7461;DHT22;6757;52.258;12.840;2023-07-29T07:07:57;20.70;99.90
7461;DHT22;6757;52.258;12.840;2023-07-29T07:10:24;20.80;99.90
7461;DHT22;6757;52.258;12.840;2023-07-29T07:12:51;20.80;99.90
7461;DHT22;6757;52.258;12.840;2023-07-29T07:15:18;21.00;99.90
7461;DHT22;6757;52.258;12.840;2023-07-29T07:17:45;21.10;99.90
7461;DHT22;6757;52.258;12.840;2023-07-29T07:20:12;21.10;99.90
7461;DHT22;6757;52.258;12.840;2023-07-29T07:22:41;21.20;99.90
7461;DHT22;6757;52.258;12.840;2023-07-29T07:25:08;21.20;99.90
7461;DHT22;6757;52.258;12.840;2023-07-29T07:27:35;21.20;99.90
7461;DHT22;6757;52.258;12.840;2023-07-29T07:30:03;21.20;99.90
7461;DHT22;6757;52.258;12.840;2023-07-29T07:32:30;21.20;99.90
7461;DHT22;6757;52.258;12.840;2023-07-29T07:34:57;21.20;99.90
7461;DHT22;6757;52.258;12.840;2023-07-29T07:37:24;21.20;99.90
7461;DHT22;6757;52.258;12.840;2023-07-29T07:39:52;21.30;99.90
7461;DHT22;6757;52.258;12.840;2023-07-29T07:42:19;21.40;99.90
7461;DHT22;6757;52.258;12.840;2023-07-29T07:44:46;21.40;99.90
7461;DHT22;6757;52.258;12.840;2023-07-29T07:47:13;21.50;99.90
7461;DHT22;6757;52.258;12.840;2023-07-29T07:49:40;21.70;99.90
7461;DHT22;6757;52.258;12.840;2023-07-29T07:52:07;21.80;99.90
7461;DHT22;6757;52.258;12.840;2023-07-29T07:54:34;22.00;99.90
7461;DHT22;6757;52.258;12.840;2023-07-29T07:57:03;22.20;99.90
7461;DHT22;6757;52.258;12.840;2023-07-29T07:59:30;22.30;99.90
7461;DHT22;6757;52.258;12.840;2023-07-29T08:01:57;22.50;99.90
7461;DHT22;6757;52.258;12.840;2023-07-29T08:04:24;22.60;99.90
7461;DHT22;6757;52.258;12.840;2023-07-29T08:06:51;22.80;99.90
7461;DHT22;6757;52.258;12.840;2023-07-29T08:09:18;22.80;99.90
7461;DHT22;6757;52.258;12.840;2023-07-29T08:11:44;22.80;99.90
7461;DHT22;6757;52.258;12.840;2023-07-29T08:14:13;22.90;99.90
7461;DHT22;6757;52.258;12.840;2023-07-29T08:16:40;22.90;99.90
7461;DHT22;6757;52.258;12.840;2023-07-29T08:19:07;23.10;99.90
7461;DHT22;6757;52.258;12.840;2023-07-29T08:21:35;23.10;99.90
7461;DHT22;6757;52.258;12.840;2023-07-29T08:24:02;23.10;99.90
7461;DHT22;6757;52.258;12.840;2023-07-29T08:26:29;23.20;99.90
7461;DHT22;6757;52.258;12.840;2023-07-29T08:28:56;23.20;99.90
7461;DHT22;6757;52.258;12.840;2023-07-29T08:31:24;23.30;99.90
7461;DHT22;6757;52.258;12.840;2023-07-29T08:33:51;23.40;99.90
7461;DHT22;6757;52.258;12.840;2023-07-29T08:36:18;23.40;99.90
7461;DHT22;6757;52.258;12.840;2023-07-29T08:38:45;23.50;99.90
7461;DHT22;6757;52.258;12.840;2023-07-29T08:41:14;23.50;99.90
7461;DHT22;6757;52.258;12.840;2023-07-29T08:43:49;23.60;99.90
7461;DHT22;6757;52.258;12.840;2023-07-29T08:46:19;23.60;99.90
7461;DHT22;6757;52.258;12.840;2023-07-29T08:48:48;23.60;99.90
7461;DHT22;6757;52.258;12.840;2023-07-29T08:51:15;23.60;99.90
7461;DHT22;6757;52.258;12.840;2023-07-29T08:53:44;23.70;99.90
7461;DHT22;6757;52.258;12.840;2023-07-29T08:56:11;23.80;99.90
7461;DHT22;6757;52.258;12.840;2023-07-29T08:58:39;23.80;99.90
7461;DHT22;6757;52.258;12.840;2023-07-29T09:01:06;23.80;99.90
7461;DHT22;6757;52.258;12.840;2023-07-29T09:03:33;23.80;99.90
7461;DHT22;6757;52.258;12.840;2023-07-29T09:06:02;23.80;99.90
7461;DHT22;6757;52.258;12.840;2023-07-29T09:08:30;23.80;99.90
7461;DHT22;6757;52.258;12.840;2023-07-29T09:10:57;23.80;99.90
7461;DHT22;6757;52.258;12.840;2023-07-29T09:13:24;23.80;99.90
7461;DHT22;6757;52.258;12.840;2023-07-29T09:15:54;23.80;99.90
7461;DHT22;6757;52.258;12.840;2023-07-29T09:18:22;23.80;99.90
7461;DHT22;6757;52.258;12.840;2023-07-29T09:20:50;23.90;99.90
7461;DHT22;6757;52.258;12.840;2023-07-29T09:23:18;23.80;99.90
7461;DHT22;6757;52.258;12.840;2023-07-29T09:25:46;23.90;99.90
7461;DHT22;6757;52.258;12.840;2023-07-29T09:28:14;23.90;99.90
7461;DHT22;6757;52.258;12.840;2023-07-29T09:30:46;23.90;99.90
7461;DHT22;6757;52.258;12.840;2023-07-29T09:33:13;24.00;99.90
7461;DHT22;6757;52.258;12.840;2023-07-29T09:35:41;24.00;99.90
7461;DHT22;6757;52.258;12.840;2023-07-29T09:38:08;24.10;99.90
7461;DHT22;6757;52.258;12.840;2023-07-29T09:40:42;24.20;99.90
7461;DHT22;6757;52.258;12.840;2023-07-29T09:43:10;24.30;99.90
7461;DHT22;6757;52.258;12.840;2023-07-29T09:45:37;24.40;99.90
7461;DHT22;6757;52.258;12.840;2023-07-29T09:48:05;24.50;99.90
7461;DHT22;6757;52.258;12.840;2023-07-29T09:50:35;24.50;99.90
7461;DHT22;6757;52.258;12.840;2023-07-29T09:53:03;24.50;99.90
7461;DHT22;6757;52.258;12.840;2023-07-29T09:55:33;24.50;99.90
7461;DHT22;6757;52.258;12.840;2023-07-29T09:58:02;24.50;99.90
7461;DHT22;6757;52.258;12.840;2023-07-29T10:00:32;24.50;99.90
7461;DHT22;6757;52.258;12.840;2023-07-29T10:03:00;24.40;99.90
7461;DHT22;6757;52.258;12.840;2023-07-29T10:05:28;24.40;99.90
7461;DHT22;6757;52.258;12.840;2023-07-29T10:07:56;24.40;99.90
7461;DHT22;6757;52.258;12.840;2023-07-29T10:10:24;24.30;99.90
7461;DHT22;6757;52.258;12.840;2023-07-29T10:12:51;24.20;99.90
7461;DHT22;6757;52.258;12.840;2023-07-29T10:15:20;24.10;99.90
7461;DHT22;6757;52.258;12.840;2023-07-29T10:17:48;24.00;99.90
7461;DHT22;6757;52.258;12.840;2023-07-29T10:20:15;24.00;99.90
7461;DHT22;6757;52.258;12.840;2023-07-29T10:22:43;23.90;99.90
7461;DHT22;6757;52.258;12.840;2023-07-29T10:25:16;23.80;99.90
7461;DHT22;6757;52.258;12.840;2023-07-29T10:27:47;23.90;99.90
7461;DHT22;6757;52.258;12.840;2023-07-29T10:30:20;23.60;99.90
7461;DHT22;6757;52.258;12.840;2023-07-29T10:32:49;23.50;99.90
7461;DHT22;6757;52.258;12.840;2023-07-29T10:35:16;23.40;99.90
7461;DHT22;6757;52.258;12.840;2023-07-29T10:37:45;23.50;99.90
7461;DHT22;6757;52.258;12.840;2023-07-29T10:40:16;23.30;99.90
7461;DHT22;6757;52.258;12.840;2023-07-29T10:42:59;23.20;99.90
7461;DHT22;6757;52.258;12.840;2023-07-29T10:45:36;23.20;99.90
7461;DHT22;6757;52.258;12.840;2023-07-29T10:48:06;23.10;99.90
7461;DHT22;6757;52.258;12.840;2023-07-29T10:50:35;23.00;99.90
7461;DHT22;6757;52.258;12.840;2023-07-29T10:53:02;22.90;99.90
7461;DHT22;6757;52.258;12.840;2023-07-29T10:55:33;22.90;99.90
7461;DHT22;6757;52.258;12.840;2023-07-29T10:58:08;22.80;99.90
7461;DHT22;6757;52.258;12.840;2023-07-29T11:00:41;22.70;99.90
7461;DHT22;6757;52.258;12.840;2023-07-29T11:03:11;22.70;99.90
7461;DHT22;6757;52.258;12.840;2023-07-29T11:05:44;22.60;99.90
7461;DHT22;6757;52.258;12.840;2023-07-29T11:08:26;22.50;99.90
7461;DHT22;6757;52.258;12.840;2023-07-29T11:11:15;22.40;99.90
7461;DHT22;6757;52.258;12.840;2023-07-29T11:13:42;22.30;99.90
7461;DHT22;6757;52.258;12.840;2023-07-29T11:16:10;22.20;99.90
7461;DHT22;6757;52.258;12.840;2023-07-29T11:18:44;22.00;99.90
7461;DHT22;6757;52.258;12.840;2023-07-29T11:21:14;21.60;99.90
7461;DHT22;6757;52.258;12.840;2023-07-29T11:23:41;21.20;99.90
7461;DHT22;6757;52.258;12.840;2023-07-29T11:26:07;20.70;99.90
7461;DHT22;6757;52.258;12.840;2023-07-29T11:28:38;20.50;99.90
7461;DHT22;6757;52.258;12.840;2023-07-29T11:31:05;20.00;99.90
7461;DHT22;6757;52.258;12.840;2023-07-29T11:33:34;19.70;99.90
7461;DHT22;6757;52.258;12.840;2023-07-29T11:36:01;19.40;99.90
7461;DHT22;6757;52.258;12.840;2023-07-29T11:38:28;19.20;99.90
7461;DHT22;6757;52.258;12.840;2023-07-29T11:41:00;19.10;99.90
7461;DHT22;6757;52.258;12.840;2023-07-29T11:43:28;19.00;99.90
7461;DHT22;6757;52.258;12.840;2023-07-29T11:45:55;19.00;99.90
7461;DHT22;6757;52.258;12.840;2023-07-29T11:48:30;19.00;99.90
7461;DHT22;6757;52.258;12.840;2023-07-29T11:51:00;19.00;99.90
7461;DHT22;6757;52.258;12.840;2023-07-29T11:53:29;19.10;99.90
7461;DHT22;6757;52.258;12.840;2023-07-29T11:55:56;19.10;99.90
7461;DHT22;6757;52.258;12.840;2023-07-29T11:58:24;19.30;99.90
7461;DHT22;6757;52.258;12.840;2023-07-29T12:00:51;19.40;99.90
7461;DHT22;6757;52.258;12.840;2023-07-29T12:03:19;19.50;99.90
7461;DHT22;6757;52.258;12.840;2023-07-29T12:05:47;19.60;99.90
7461;DHT22;6757;52.258;12.840;2023-07-29T12:08:15;19.80;99.90
7461;DHT22;6757;52.258;12.840;2023-07-29T12:10:42;20.00;99.90
7461;DHT22;6757;52.258;12.840;2023-07-29T12:13:09;20.30;99.90
7461;DHT22;6757;52.258;12.840;2023-07-29T12:15:38;20.50;99.90
7461;DHT22;6757;52.258;12.840;2023-07-29T12:18:06;20.80;99.90
7461;DHT22;6757;52.258;12.840;2023-07-29T12:20:34;21.20;99.90
7461;DHT22;6757;52.258;12.840;2023-07-29T12:23:01;21.50;99.90
7461;DHT22;6757;52.258;12.840;2023-07-29T12:25:30;22.00;99.90
7461;DHT22;6757;52.258;12.840;2023-07-29T12:28:02;22.40;99.90
7461;DHT22;6757;52.258;12.840;2023-07-29T12:30:30;22.80;99.90
7461;DHT22;6757;52.258;12.840;2023-07-29T12:32:57;23.10;99.90
7461;DHT22;6757;52.258;12.840;2023-07-29T12:35:25;23.40;99.90
7461;DHT22;6757;52.258;12.840;2023-07-29T12:38:00;23.60;99.90
7461;DHT22;6757;52.258;12.840;2023-07-29T12:40:29;23.90;99.90
7461;DHT22;6757;52.258;12.840;2023-07-29T12:42:56;24.20;99.90
7461;DHT22;6757;52.258;12.840;2023-07-29T12:45:23;24.40;99.90
7461;DHT22;6757;52.258;12.840;2023-07-29T12:47:52;24.80;99.90
7461;DHT22;6757;52.258;12.840;2023-07-29T12:50:19;24.70;99.90
7461;DHT22;6757;52.258;12.840;2023-07-29T12:52:46;25.00;99.90
7461;DHT22;6757;52.258;12.840;2023-07-29T12:55:13;25.30;99.90
7461;DHT22;6757;52.258;12.840;2023-07-29T12:57:42;25.60;99.90
7461;DHT22;6757;52.258;12.840;2023-07-29T13:00:10;26.00;99.90
7461;DHT22;6757;52.258;12.840;2023-07-29T13:02:38;26.50;99.90
7461;DHT22;6757;52.258;12.840;2023-07-29T13:05:06;27.00;99.90
7461;DHT22;6757;52.258;12.840;2023-07-29T13:07:35;27.70;99.90
7461;DHT22;6757;52.258;12.840;2023-07-29T13:10:03;28.10;99.90
7461;DHT22;6757;52.258;12.840;2023-07-29T13:12:30;28.20;99.90
7461;DHT22;6757;52.258;12.840;2023-07-29T13:14:58;28.20;99.90
7461;DHT22;6757;52.258;12.840;2023-07-29T13:17:30;28.10;99.90
7461;DHT22;6757;52.258;12.840;2023-07-29T13:20:04;27.80;99.90
7461;DHT22;6757;52.258;12.840;2023-07-29T13:22:32;27.30;99.90
7461;DHT22;6757;52.258;12.840;2023-07-29T13:24:59;26.90;99.90
7461;DHT22;6757;52.258;12.840;2023-07-29T13:27:30;26.40;99.90
7461;DHT22;6757;52.258;12.840;2023-07-29T13:30:08;26.10;99.90
7461;DHT22;6757;52.258;12.840;2023-07-29T13:32:39;25.90;99.90
7461;DHT22;6757;52.258;12.840;2023-07-29T13:35:06;25.90;99.90
7461;DHT22;6757;52.258;12.840;2023-07-29T13:37:43;26.20;99.90
7461;DHT22;6757;52.258;12.840;2023-07-29T13:40:17;26.70;99.90
7461;DHT22;6757;52.258;12.840;2023-07-29T13:42:47;27.40;99.90
7461;DHT22;6757;52.258;12.840;2023-07-29T13:45:29;28.00;99.90
7461;DHT22;6757;52.258;12.840;2023-07-29T13:48:02;28.20;99.90
7461;DHT22;6757;52.258;12.840;2023-07-29T13:50:34;28.40;99.90
7461;DHT22;6757;52.258;12.840;2023-07-29T13:53:10;28.80;99.90
7461;DHT22;6757;52.258;12.840;2023-07-29T13:55:37;29.20;99.90
7461;DHT22;6757;52.258;12.840;2023-07-29T13:58:04;29.20;99.90
7461;DHT22;6757;52.258;12.840;2023-07-29T14:00:33;28.90;99.90
7461;DHT22;6757;52.258;12.840;2023-07-29T14:03:00;28.60;99.90
7461;DHT22;6757;52.258;12.840;2023-07-29T14:05:27;28.60;99.90
7461;DHT22;6757;52.258;12.840;2023-07-29T14:07:53;28.60;99.90
7461;DHT22;6757;52.258;12.840;2023-07-29T14:10:20;28.70;99.90
7461;DHT22;6757;52.258;12.840;2023-07-29T14:12:47;28.90;99.90
7461;DHT22;6757;52.258;12.840;2023-07-29T14:15:14;29.30;99.90
7461;DHT22;6757;52.258;12.840;2023-07-29T14:17:42;29.40;99.90
7461;DHT22;6757;52.258;12.840;2023-07-29T14:20:10;29.30;99.90
7461;DHT22;6757;52.258;12.840;2023-07-29T14:22:38;29.20;99.90
7461;DHT22;6757;52.258;12.840;2023-07-29T14:25:06;29.30;99.90
7461;DHT22;6757;52.258;12.840;2023-07-29T14:27:33;29.40;99.90
7461;DHT22;6757;52.258;12.840;2023-07-29T14:30:00;29.60;99.90
7461;DHT22;6757;52.258;12.840;2023-07-29T14:32:27;29.50;99.90
7461;DHT22;6757;52.258;12.840;2023-07-29T14:34:56;29.20;99.90
7461;DHT22;6757;52.258;12.840;2023-07-29T14:37:23;28.70;99.90
7461;DHT22;6757;52.258;12.840;2023-07-29T14:39:50;28.20;99.90
7461;DHT22;6757;52.258;12.840;2023-07-29T14:42:17;27.70;99.90
7461;DHT22;6757;52.258;12.840;2023-07-29T14:44:44;27.30;99.90
7461;DHT22;6757;52.258;12.840;2023-07-29T14:47:11;26.90;99.90
7461;DHT22;6757;52.258;12.840;2023-07-29T14:49:38;26.70;99.90
7461;DHT22;6757;52.258;12.840;2023-07-29T14:52:07;26.50;99.90
7461;DHT22;6757;52.258;12.840;2023-07-29T14:54:34;26.40;99.90
7461;DHT22;6757;52.258;12.840;2023-07-29T14:57:01;26.70;99.90
7461;DHT22;6757;52.258;12.840;2023-07-29T14:59:28;27.10;99.90
7461;DHT22;6757;52.258;12.840;2023-07-29T15:01:56;27.70;99.90
7461;DHT22;6757;52.258;12.840;2023-07-29T15:04:23;28.30;99.90
7461;DHT22;6757;52.258;12.840;2023-07-29T15:06:50;28.50;99.90
7461;DHT22;6757;52.258;12.840;2023-07-29T15:09:18;28.70;99.90
7461;DHT22;6757;52.258;12.840;2023-07-29T15:11:45;28.30;99.90
7461;DHT22;6757;52.258;12.840;2023-07-29T15:14:12;27.80;99.90
7461;DHT22;6757;52.258;12.840;2023-07-29T15:16:39;27.30;99.90
7461;DHT22;6757;52.258;12.840;2023-07-29T15:19:06;26.70;99.90
7461;DHT22;6757;52.258;12.840;2023-07-29T15:21:32;26.10;99.90
7461;DHT22;6757;52.258;12.840;2023-07-29T15:24:00;25.70;99.90
7461;DHT22;6757;52.258;12.840;2023-07-29T15:26:28;25.50;99.90
7461;DHT22;6757;52.258;12.840;2023-07-29T15:28:55;25.20;99.90
7461;DHT22;6757;52.258;12.840;2023-07-29T15:31:22;25.00;99.90
7461;DHT22;6757;52.258;12.840;2023-07-29T15:33:49;24.90;99.90
7461;DHT22;6757;52.258;12.840;2023-07-29T15:36:16;25.10;99.90
7461;DHT22;6757;52.258;12.840;2023-07-29T15:38:43;25.60;99.90
7461;DHT22;6757;52.258;12.840;2023-07-29T15:41:10;26.10;99.90
7461;DHT22;6757;52.258;12.840;2023-07-29T15:43:38;26.30;99.90
7461;DHT22;6757;52.258;12.840;2023-07-29T15:46:05;26.50;99.90
7461;DHT22;6757;52.258;12.840;2023-07-29T15:48:32;26.50;99.90
7461;DHT22;6757;52.258;12.840;2023-07-29T15:50:59;26.60;99.90